createdAt,value
2018-09-06T00:02:43.537Z,6.73
2018-09-06T00:09:12.767Z,7.23
2018-09-06T00:14:18.476Z,7.17
2018-09-06T00:19:25.443Z,7.10
2018-09-06T00:30:20.353Z,7.20
2018-09-06T00:35:33.074Z,6.90
2018-09-06T00:46:07.628Z,7.50
2018-09-06T00:56:58.404Z,6.90
2018-09-06T02:05:49.521Z,8.07
2018-09-06T02:10:54.955Z,6.77
2018-09-06T02:16:01.274Z,7.00
2018-09-06T02:21:07.496Z,7.20
2018-09-06T02:26:13.336Z,6.30
2018-09-06T02:31:18.541Z,7.27
2018-09-06T02:36:23.346Z,7.33
2018-09-06T02:41:27.991Z,6.80
2018-09-06T02:46:33.110Z,6.73
2018-09-06T02:51:38.158Z,7.53
2018-09-06T02:56:42.570Z,6.93
2018-09-06T03:01:47.526Z,7.00
2018-09-06T03:06:53.096Z,6.70
2018-09-06T03:12:02.416Z,6.90
2018-09-06T03:17:08.136Z,7.47
2018-09-06T03:22:14.220Z,7.07
2018-09-06T03:33:03.388Z,6.87
2018-09-06T03:38:08.572Z,7.47
2018-09-06T03:43:13.988Z,7.43
2018-09-06T03:48:30.518Z,7.13
2018-09-06T03:53:35.816Z,7.87
2018-09-06T04:03:54.301Z,8.03
2018-09-06T04:08:59.225Z,8.30
2018-09-06T04:14:03.662Z,7.80
2018-09-06T04:19:08.647Z,8.43
2018-09-06T04:24:13.375Z,8.63
2018-09-06T04:29:17.899Z,8.43
2018-09-06T04:34:22.621Z,8.53
2018-09-06T04:39:27.307Z,8.20
2018-09-06T04:44:31.916Z,8.87
2018-09-06T04:49:36.376Z,8.17
2018-09-06T04:54:40.872Z,8.63
2018-09-06T04:59:45.264Z,8.47
2018-09-06T05:04:49.926Z,8.47
2018-09-06T05:09:54.433Z,7.93
2018-09-06T05:14:58.888Z,7.33
2018-09-06T05:20:03.900Z,7.53
2018-09-06T05:25:08.607Z,9.03
2018-09-06T05:30:13.030Z,9.10
2018-09-06T05:35:17.558Z,9.63
2018-09-06T05:40:22.144Z,9.27
2018-09-06T05:45:26.713Z,9.17
2018-09-06T05:50:31.784Z,9.73
2018-09-06T05:55:36.319Z,10.40
2018-09-06T06:00:48.010Z,10.27
2018-09-06T06:05:52.425Z,9.60
2018-09-06T06:10:57.028Z,10.53
2018-09-06T06:16:01.511Z,9.77
2018-09-06T06:21:06.151Z,10.80
2018-09-06T06:26:10.747Z,9.97
2018-09-06T06:31:15.072Z,11.77
2018-09-06T06:36:19.647Z,10.97
2018-09-06T06:41:24.113Z,17.00
2018-09-06T06:46:29.191Z,12.40
2018-09-06T06:51:34.069Z,15.77
2018-09-06T06:56:38.559Z,17.93
2018-09-06T07:01:43.113Z,17.00
2018-09-06T07:06:47.913Z,17.60
2018-09-06T07:11:53.329Z,17.00
2018-09-06T07:16:57.800Z,17.20
2018-09-06T07:22:02.216Z,17.67
2018-09-06T07:27:06.737Z,17.70
2018-09-06T07:32:11.404Z,17.93
2018-09-06T07:37:15.842Z,17.67
2018-09-06T07:42:20.315Z,17.57
2018-09-06T07:47:24.781Z,18.30
2018-09-06T07:52:29.191Z,18.10
2018-09-06T07:57:33.753Z,19.43
2018-09-06T08:02:38.760Z,18.83
2018-09-06T08:07:43.199Z,19.50
2018-09-06T08:12:47.689Z,17.90
2018-09-06T08:17:52.413Z,18.30
2018-09-06T08:22:56.939Z,18.00
2018-09-06T08:33:19.128Z,16.30
2018-09-06T08:38:24.093Z,16.67
2018-09-06T08:43:29.858Z,16.70
2018-09-06T08:48:34.342Z,15.90
2018-09-06T08:53:38.990Z,16.17
2018-09-06T08:58:43.835Z,17.30
2018-09-06T09:03:48.399Z,18.30
2018-09-06T09:08:53.384Z,16.13
2018-09-06T09:13:58.158Z,16.67
2018-09-06T09:19:03.677Z,15.80
2018-09-06T09:24:08.207Z,16.70
2018-09-06T09:34:30.123Z,16.37
2018-09-06T09:39:38.695Z,16.50
2018-09-06T09:44:43.782Z,17.83
2018-09-06T09:49:51.215Z,17.10
2018-09-06T09:54:56.637Z,18.07
2018-09-06T10:00:01.896Z,18.07
2018-09-06T10:05:11.593Z,19.57
2018-09-06T10:10:16.407Z,18.27
2018-09-06T10:15:22.188Z,18.73
2018-09-06T10:20:26.723Z,18.37
2018-09-06T10:25:31.362Z,19.57
2018-09-06T10:30:36.047Z,20.07
2018-09-06T10:35:40.574Z,20.17
2018-09-06T10:40:45.125Z,19.90
2018-09-06T10:45:49.629Z,20.33
2018-09-06T10:50:54.582Z,19.27
2018-09-06T10:55:59.253Z,19.43
2018-09-06T11:01:24.402Z,20.77
2018-09-06T11:06:29.870Z,20.67
2018-09-06T11:11:34.916Z,19.50
2018-09-06T11:16:39.907Z,18.73
2018-09-06T11:21:44.738Z,17.43
2018-09-06T11:26:49.288Z,17.17
2018-09-06T11:31:53.989Z,18.70
2018-09-06T11:36:59.326Z,19.27
2018-09-06T11:42:04.382Z,20.77
2018-09-06T11:47:10.553Z,17.30
2018-09-06T11:52:15.212Z,19.07
2018-09-06T11:57:20.539Z,20.07
2018-09-06T12:02:25.600Z,20.07
2018-09-06T12:07:30.364Z,19.07
2018-09-06T12:12:35.229Z,20.37
2018-09-06T12:17:40.076Z,19.90
2018-09-06T12:22:44.882Z,20.17
2018-09-06T12:27:49.631Z,19.13
2018-09-06T12:32:54.229Z,20.53
2018-09-06T12:37:58.975Z,19.53
2018-09-06T12:43:03.822Z,21.13
2018-09-06T12:48:08.525Z,19.57
2018-09-06T12:53:13.118Z,20.50
2018-09-06T12:58:18.179Z,20.10
2018-09-06T13:03:23.347Z,20.03
2018-09-06T13:08:27.905Z,22.17
2018-09-06T13:13:32.530Z,23.47
2018-09-06T13:18:37.305Z,25.40
2018-09-06T13:23:41.967Z,29.27
2018-09-06T13:28:46.631Z,33.73
2018-09-06T13:33:51.330Z,37.60
2018-09-06T13:38:56.136Z,35.33
2018-09-06T13:44:01.480Z,32.53
2018-09-06T13:49:05.940Z,33.50
2018-09-06T13:54:10.410Z,31.47
2018-09-06T13:59:15.792Z,35.40
2018-09-06T14:04:23.342Z,40.57
2018-09-06T14:09:28.124Z,35.40
2018-09-06T14:14:33.532Z,38.60
2018-09-06T14:19:38.061Z,35.27
2018-09-06T14:24:43.017Z,34.27
2018-09-06T14:29:48.287Z,37.03
2018-09-06T14:34:52.756Z,36.70
2018-09-06T14:39:57.635Z,39.10
2018-09-06T14:45:02.602Z,37.07
2018-09-06T14:50:07.258Z,37.70
2018-09-06T14:55:11.910Z,39.43
2018-09-06T15:00:16.680Z,35.23
2018-09-06T15:05:22.323Z,29.77
2018-09-06T15:10:26.863Z,25.30
2018-09-06T15:15:31.900Z,16.67
2018-09-06T15:20:36.340Z,16.57
2018-09-06T15:25:40.837Z,18.77
2018-09-06T15:30:45.851Z,21.10
2018-09-06T15:35:50.507Z,22.90
2018-09-06T15:40:56.213Z,20.27
2018-09-06T15:46:00.919Z,22.17
2018-09-06T15:51:05.544Z,22.40
2018-09-06T15:56:10.007Z,23.67
2018-09-06T16:01:14.434Z,25.10
2018-09-06T16:06:19.271Z,23.93
2018-09-06T16:11:25.184Z,25.57
2018-09-06T16:16:30.071Z,25.43
2018-09-06T16:21:34.511Z,25.73
2018-09-06T16:26:39.281Z,27.53
2018-09-06T16:31:43.860Z,30.00
2018-09-06T16:36:48.475Z,28.03
2018-09-06T16:41:52.975Z,31.40
2018-09-06T16:46:57.662Z,30.97
2018-09-06T16:52:02.200Z,22.13
2018-09-06T16:57:06.804Z,22.03
2018-09-06T17:02:11.489Z,22.53
2018-09-06T17:07:16.254Z,22.03
2018-09-06T17:12:20.799Z,22.33
2018-09-06T17:17:25.285Z,20.97
2018-09-06T17:22:30.100Z,22.20
2018-09-06T17:27:34.554Z,20.07
2018-09-06T17:32:39.059Z,19.70
2018-09-06T17:37:44.046Z,20.50
2018-09-06T17:42:48.645Z,17.97
2018-09-06T17:47:53.152Z,18.73
2018-09-06T17:52:57.667Z,18.33
2018-09-06T17:58:02.109Z,19.17
2018-09-06T18:03:06.904Z,21.40
2018-09-06T18:08:11.433Z,21.03
2018-09-06T18:13:15.862Z,25.07
2018-09-06T18:18:20.684Z,24.00
2018-09-06T18:23:25.428Z,25.43
2018-09-06T18:34:08.237Z,25.47
2018-09-06T18:44:50.599Z,28.33
2018-09-06T18:50:05.078Z,29.77
2018-09-06T18:55:14.287Z,31.53
2018-09-06T19:00:22.791Z,33.67
2018-09-06T19:38:36.994Z,34.20
2018-09-06T19:43:44.109Z,36.93
2018-09-06T19:48:59.322Z,34.27
2018-09-06T19:54:22.397Z,36.57
2018-09-06T20:10:24.241Z,43.17
2018-09-06T20:15:33.087Z,43.03
2018-09-06T20:41:58.611Z,53.00
2018-09-06T20:49:18.918Z,57.70
2018-09-06T20:54:25.139Z,58.83
2018-09-06T20:59:35.486Z,56.57
2018-09-06T21:04:51.903Z,59.37
2018-09-06T21:16:15.567Z,56.53
2018-09-06T21:21:21.520Z,54.17
2018-09-06T21:32:30.312Z,51.40
2018-09-06T22:00:02.371Z,80.80
2018-09-06T22:06:38.872Z,84.70
2018-09-06T22:18:48.123Z,83.97
2018-09-06T22:40:25.928Z,88.80
2018-09-06T22:45:35.714Z,89.10
2018-09-06T23:01:39.614Z,94.80
2018-09-06T23:12:08.263Z,61.43
2018-09-06T23:17:14.241Z,44.27
2018-09-06T23:22:26.668Z,45.13
2018-09-06T23:27:32.239Z,42.83
2018-09-06T23:32:37.601Z,42.03
2018-09-06T23:38:03.138Z,41.97
2018-09-06T23:53:34.898Z,35.03
2018-09-06T23:58:44.235Z,36.93
